Terminal Aerodrome Forecast
Issued by NWS

Home | Current Version | Previous Version | Text Only | Print | Product List | Glossary On
Versions: 1 2 3 4 5 6 7 8 9 10 11 12 13 14 15 16 17 18
000
FTUS43 KMQT 240213 AAB
TAFSAW
TAF AMD
KSAW 240213Z 2402/2424 01006KT P6SM OVC003
     FM240800 01005KT P6SM VCSH OVC010
     FM241400 03007KT P6SM OVC015
     FM241500 03008KT P6SM OVC020
     FM241700 03009KT P6SM BKN035=

USA.gov is the U.S. government's official web portal to all federal, state and local government web resources and services.